createdAt,value
2022-08-28T09:38:29.393Z,48.72
2022-08-28T09:50:29.865Z,50.66
2022-08-28T10:02:30.307Z,53.44
2022-08-28T10:14:30.779Z,56.57
2022-08-28T10:26:31.244Z,56.91
2022-08-28T10:38:31.693Z,55.00
2022-08-28T10:50:32.140Z,51.51
2022-08-28T11:02:32.644Z,48.13
2022-08-28T11:14:33.058Z,50.37
2022-08-28T11:26:33.509Z,55.24
2022-08-28T11:38:33.977Z,68.56
2022-08-28T11:50:34.382Z,78.82
2022-08-28T12:02:34.932Z,70.05
2022-08-28T12:14:35.328Z,79.23
2022-08-28T12:26:35.870Z,77.77
2022-08-28T12:38:36.217Z,77.29
2022-08-28T12:50:36.693Z,78.79
2022-08-28T13:02:37.166Z,83.28
2022-08-28T13:14:37.742Z,85.79
2022-08-28T13:26:38.074Z,80.18
2022-08-28T13:38:38.506Z,85.31
2022-08-28T13:50:38.942Z,81.22
2022-08-28T14:02:39.495Z,86.64
2022-08-28T14:14:39.889Z,80.25
2022-08-28T14:26:40.362Z,81.70
2022-08-28T14:38:40.760Z,82.94
2022-08-28T14:50:41.197Z,81.82
2022-08-28T15:02:41.693Z,82.42
2022-08-28T15:14:42.538Z,77.45
2022-08-28T15:26:42.601Z,77.43
2022-08-28T15:38:43.073Z,75.59
2022-08-28T15:50:43.527Z,74.70
2022-08-28T16:02:44.009Z,75.71
2022-08-28T16:14:44.439Z,75.69
2022-08-28T16:26:44.892Z,74.10
2022-08-28T16:38:45.381Z,78.33
2022-08-28T16:50:45.812Z,78.59
2022-08-28T17:02:46.310Z,75.85
2022-08-28T17:14:47.272Z,78.51
2022-08-28T17:26:47.399Z,75.66
2022-08-28T17:38:47.630Z,75.24
2022-08-28T17:50:48.078Z,75.67
2022-08-28T18:02:48.540Z,78.12
2022-08-28T18:14:48.944Z,76.74
2022-08-28T18:26:49.484Z,76.26
2022-08-28T18:38:49.871Z,74.81
2022-08-28T18:50:51.079Z,75.25
2022-08-28T19:02:50.890Z,77.51
2022-08-28T19:14:51.280Z,77.16
2022-08-28T19:26:51.709Z,74.65
2022-08-28T19:38:52.163Z,75.70
2022-08-28T19:50:52.632Z,81.86
2022-08-28T20:02:53.135Z,81.95
2022-08-28T20:14:53.539Z,80.18
2022-08-28T20:26:53.999Z,78.55
2022-08-28T20:38:54.448Z,78.16
2022-08-28T20:50:55.206Z,80.53
2022-08-28T21:02:55.389Z,77.48
2022-08-28T21:14:55.838Z,76.80
2022-08-28T21:26:56.273Z,81.01
2022-08-28T21:38:56.740Z,77.45
2022-08-28T21:50:57.175Z,79.44
2022-08-28T22:02:57.616Z,76.85
2022-08-28T22:14:58.038Z,76.10
2022-08-28T22:26:58.516Z,75.76
2022-08-28T22:38:59.019Z,73.75
2022-08-28T22:44:59.011Z,73.55
2022-08-28T22:50:59.005Z,73.89
2022-08-28T22:56:59.003Z,74.56
2022-08-28T23:03:55.912Z,76.20
2022-08-28T23:09:55.941Z,74.55
2022-08-28T23:15:55.965Z,78.74
2022-08-28T23:21:55.955Z,79.66
2022-08-28T23:27:55.923Z,81.80
2022-08-28T23:33:55.933Z,79.41
2022-08-28T23:39:55.925Z,77.45
2022-08-28T23:45:55.991Z,81.67
2022-08-28T23:51:55.960Z,78.76
2022-08-28T23:57:55.958Z,77.02
